createdAt,value
2022-07-25T00:00:26.441Z,23.20
2022-07-25T00:02:52.970Z,23.19
2022-07-25T00:05:21.269Z,23.10
2022-07-25T00:07:48.705Z,23.05
2022-07-25T00:10:15.294Z,23.00
2022-07-25T00:12:41.928Z,22.98
2022-07-25T00:15:09.501Z,22.92
2022-07-25T00:17:36.562Z,22.87
2022-07-25T00:20:04.668Z,22.82
2022-07-25T00:22:31.438Z,22.79
2022-07-25T00:24:57.999Z,22.76
2022-07-25T00:27:24.975Z,22.71
2022-07-25T00:29:51.501Z,22.70
2022-07-25T00:32:18.033Z,22.67
2022-07-25T00:34:44.702Z,22.62
2022-07-25T00:37:11.251Z,22.60
2022-07-25T00:39:37.718Z,22.57
2022-07-25T00:42:04.432Z,22.56
2022-07-25T00:44:33.099Z,22.53
2022-07-25T00:47:00.168Z,22.54
2022-07-25T00:49:27.552Z,22.52
2022-07-25T00:51:54.862Z,22.46
2022-07-25T00:54:22.262Z,22.46
2022-07-25T00:56:49.744Z,22.44
2022-07-25T00:59:17.197Z,22.43
2022-07-25T01:01:45.581Z,22.42
2022-07-25T01:04:12.250Z,22.37
2022-07-25T01:06:38.948Z,22.33
2022-07-25T01:09:05.974Z,22.31
2022-07-25T01:11:32.788Z,22.28
2022-07-25T01:13:59.539Z,22.24
2022-07-25T01:16:26.188Z,22.27
2022-07-25T01:18:52.731Z,22.27
2022-07-25T01:21:19.248Z,22.25
2022-07-25T01:23:45.790Z,22.24
2022-07-25T01:26:12.347Z,22.23
2022-07-25T01:28:39.154Z,22.20
2022-07-25T01:31:06.035Z,22.19
2022-07-25T01:33:32.631Z,22.19
2022-07-25T01:35:59.437Z,22.18
2022-07-25T01:38:26.058Z,22.17
2022-07-25T01:40:52.855Z,22.17
2022-07-25T01:43:19.395Z,22.16
2022-07-25T01:45:45.925Z,22.11
2022-07-25T01:48:12.515Z,22.12
2022-07-25T01:50:39.058Z,22.11
2022-07-25T01:53:05.693Z,22.08
2022-07-25T01:55:32.271Z,22.06
2022-07-25T01:57:59.191Z,22.03
2022-07-25T02:00:26.427Z,22.02
2022-07-25T02:03:13.205Z,21.97
2022-07-25T02:05:40.049Z,21.93
2022-07-25T02:08:06.624Z,21.88
2022-07-25T02:10:33.452Z,21.90
2022-07-25T02:13:00.836Z,21.85
2022-07-25T02:15:27.363Z,21.83
2022-07-25T02:17:53.842Z,21.81
2022-07-25T02:20:20.499Z,21.79
2022-07-25T02:22:47.024Z,21.77
2022-07-25T02:25:13.505Z,21.76
2022-07-25T02:27:40.283Z,21.73
2022-07-25T02:30:07.538Z,21.70
2022-07-25T02:32:34.039Z,21.72
2022-07-25T02:35:00.514Z,21.69
2022-07-25T02:37:27.117Z,21.69
2022-07-25T02:39:53.645Z,21.67
2022-07-25T02:42:20.117Z,21.65
2022-07-25T02:44:46.607Z,21.61
2022-07-25T02:47:13.144Z,21.59
2022-07-25T02:49:39.738Z,21.57
2022-07-25T02:52:06.304Z,21.55
2022-07-25T02:54:32.817Z,21.53
2022-07-25T02:56:59.286Z,21.47
2022-07-25T02:59:25.845Z,21.47
2022-07-25T03:01:58.808Z,21.45
2022-07-25T03:04:25.541Z,21.41
2022-07-25T03:06:52.105Z,21.36
2022-07-25T03:09:19.099Z,21.33
2022-07-25T03:11:45.576Z,21.30
2022-07-25T03:14:12.080Z,21.29
2022-07-25T03:16:38.651Z,21.29
2022-07-25T03:19:05.297Z,21.25
2022-07-25T03:21:31.783Z,21.21
2022-07-25T03:23:58.284Z,21.19
2022-07-25T03:26:24.831Z,21.18
2022-07-25T03:28:51.566Z,21.13
2022-07-25T03:31:18.191Z,21.15
2022-07-25T03:33:44.782Z,21.14
2022-07-25T03:36:11.737Z,21.12
2022-07-25T03:38:39.381Z,21.09
2022-07-25T03:41:06.126Z,21.06
2022-07-25T03:43:32.651Z,21.07
2022-07-25T03:45:59.271Z,21.06
2022-07-25T03:48:26.016Z,21.05
2022-07-25T03:50:52.549Z,21.06
2022-07-25T03:53:19.237Z,21.05
2022-07-25T03:55:45.760Z,21.03
2022-07-25T03:58:12.311Z,21.02
2022-07-25T04:00:38.939Z,21.01
2022-07-25T04:03:05.541Z,20.99
2022-07-25T04:05:32.024Z,20.97
2022-07-25T04:07:58.977Z,21.02
2022-07-25T04:10:25.471Z,21.03
2022-07-25T04:12:52.039Z,21.04
2022-07-25T04:15:18.685Z,21.05
2022-07-25T04:17:45.186Z,21.06
2022-07-25T04:20:12.512Z,21.09
2022-07-25T04:22:42.157Z,21.13
2022-07-25T04:25:11.309Z,21.17
2022-07-25T04:27:38.397Z,21.20
2022-07-25T04:30:05.301Z,21.26
2022-07-25T04:32:31.813Z,21.29
2022-07-25T04:34:58.382Z,21.35
2022-07-25T04:37:25.624Z,21.38
2022-07-25T04:39:52.193Z,21.43
2022-07-25T04:42:18.707Z,21.48
2022-07-25T04:44:45.203Z,21.50
2022-07-25T04:47:11.712Z,21.54
2022-07-25T04:49:38.205Z,21.58
2022-07-25T04:52:04.957Z,21.61
2022-07-25T04:54:31.501Z,21.67
2022-07-25T04:56:58.204Z,21.72
2022-07-25T04:59:24.738Z,21.78
2022-07-25T05:01:51.275Z,21.86
2022-07-25T05:04:17.804Z,21.90
2022-07-25T05:06:44.280Z,21.98
2022-07-25T05:09:10.814Z,22.01
2022-07-25T05:11:37.318Z,22.08
2022-07-25T05:14:04.218Z,22.13
2022-07-25T05:16:31.115Z,22.18
2022-07-25T05:18:57.729Z,22.26
2022-07-25T05:21:24.315Z,22.33
2022-07-25T05:23:50.891Z,22.40
2022-07-25T05:26:17.395Z,22.47
2022-07-25T05:28:44.218Z,22.54
2022-07-25T05:31:10.766Z,22.62
2022-07-25T05:33:37.611Z,22.74
2022-07-25T05:36:05.207Z,22.85
2022-07-25T05:38:32.008Z,22.98
2022-07-25T05:40:58.502Z,23.09
2022-07-25T05:43:25.039Z,23.20
2022-07-25T05:45:52.039Z,23.35
2022-07-25T05:48:18.572Z,23.47
2022-07-25T05:50:46.114Z,23.64
2022-07-25T05:53:12.673Z,23.76
2022-07-25T05:55:40.140Z,23.87
2022-07-25T05:58:07.453Z,24.01
2022-07-25T06:00:33.923Z,24.10
2022-07-25T06:03:00.803Z,24.22
2022-07-25T06:05:27.798Z,24.27
2022-07-25T06:07:54.431Z,24.34
2022-07-25T06:10:21.619Z,24.42
2022-07-25T06:12:48.231Z,24.47
2022-07-25T06:15:22.361Z,24.52
2022-07-25T06:17:52.949Z,24.58
2022-07-25T06:20:19.849Z,24.62
2022-07-25T06:22:46.412Z,24.66
2022-07-25T06:25:12.921Z,24.69
2022-07-25T06:27:39.504Z,24.75
2022-07-25T06:30:18.677Z,24.79
2022-07-25T06:32:46.262Z,24.90
2022-07-25T06:35:12.748Z,24.99
2022-07-25T06:37:39.937Z,25.07
2022-07-25T06:40:08.045Z,25.15
2022-07-25T06:42:38.988Z,25.29
2022-07-25T06:45:07.128Z,25.42
2022-07-25T06:47:36.001Z,25.56
2022-07-25T06:50:04.879Z,25.68
2022-07-25T06:52:34.289Z,25.81
2022-07-25T06:55:02.441Z,26.00
2022-07-25T06:57:29.003Z,26.17
2022-07-25T06:59:55.714Z,26.33
2022-07-25T07:02:22.536Z,26.43
2022-07-25T07:04:49.049Z,26.54
2022-07-25T07:07:16.718Z,26.52
2022-07-25T07:09:43.827Z,26.66
2022-07-25T07:12:10.901Z,26.67
2022-07-25T07:14:37.953Z,26.76
2022-07-25T07:17:05.623Z,26.82
2022-07-25T07:19:32.106Z,26.85
2022-07-25T07:21:58.935Z,26.85
2022-07-25T07:24:25.499Z,26.92
2022-07-25T07:26:53.553Z,27.07
2022-07-25T07:29:20.228Z,27.14
2022-07-25T07:31:46.930Z,27.24
2022-07-25T07:34:14.491Z,27.19
2022-07-25T07:36:43.263Z,27.27
2022-07-25T07:39:09.971Z,27.35
2022-07-25T07:41:36.544Z,27.42
2022-07-25T07:44:03.262Z,27.48
2022-07-25T07:46:29.867Z,27.66
2022-07-25T07:48:56.588Z,27.81
2022-07-25T07:51:23.317Z,27.93
2022-07-25T07:54:08.713Z,28.04
2022-07-25T07:56:35.151Z,28.21
2022-07-25T07:59:01.686Z,28.34
2022-07-25T08:01:28.375Z,28.50
2022-07-25T08:03:55.101Z,28.58
2022-07-25T08:06:21.638Z,28.70
2022-07-25T08:08:48.161Z,28.72
2022-07-25T08:11:14.855Z,28.82
2022-07-25T08:13:41.365Z,28.85
2022-07-25T08:16:08.186Z,28.99
2022-07-25T08:18:34.809Z,28.96
2022-07-25T08:21:04.070Z,29.06
2022-07-25T08:23:31.938Z,28.94
2022-07-25T08:25:58.631Z,28.96
2022-07-25T08:28:25.143Z,29.07
2022-07-25T08:30:52.224Z,29.11
2022-07-25T08:33:19.241Z,29.16
2022-07-25T08:35:48.505Z,29.24
2022-07-25T08:38:16.451Z,29.33
2022-07-25T08:40:43.010Z,29.40
2022-07-25T08:43:14.380Z,29.13
2022-07-25T08:45:44.988Z,29.02
2022-07-25T08:48:11.700Z,29.29
2022-07-25T08:50:38.703Z,29.46
2022-07-25T08:53:31.610Z,29.47
2022-07-25T08:55:52.041Z,29.49
2022-07-25T08:58:18.788Z,29.53
2022-07-25T09:00:46.714Z,29.36
2022-07-25T09:03:13.581Z,29.37
2022-07-25T09:05:40.552Z,29.48
2022-07-25T09:08:11.273Z,29.42
2022-07-25T09:10:39.315Z,29.32
2022-07-25T09:13:11.001Z,29.46
2022-07-25T09:15:41.576Z,29.18
2022-07-25T09:18:15.939Z,28.94
2022-07-25T09:20:46.423Z,28.98
2022-07-25T09:23:15.789Z,29.07
2022-07-25T09:25:42.778Z,29.22
2022-07-25T09:28:17.476Z,28.99
2022-07-25T09:31:00.956Z,28.99
2022-07-25T09:33:29.062Z,29.26
2022-07-25T09:35:56.843Z,29.44
2022-07-25T09:38:24.944Z,29.71
2022-07-25T09:41:09.615Z,29.60
2022-07-25T09:43:44.320Z,29.70
2022-07-25T09:46:12.286Z,30.03
2022-07-25T09:48:40.268Z,29.97
2022-07-25T09:51:07.611Z,30.13
2022-07-25T09:53:34.399Z,30.24
2022-07-25T09:56:01.425Z,30.12
2022-07-25T09:58:29.354Z,30.02
2022-07-25T10:01:04.917Z,30.03
2022-07-25T10:03:57.702Z,30.09
2022-07-25T10:06:41.578Z,30.04
2022-07-25T10:09:14.781Z,29.79
2022-07-25T10:11:41.615Z,29.65
2022-07-25T10:14:12.222Z,29.67
2022-07-25T10:16:46.962Z,29.68
2022-07-25T10:19:13.728Z,30.06
2022-07-25T10:21:40.898Z,29.94
2022-07-25T10:24:10.991Z,29.49
2022-07-25T10:26:40.194Z,29.35
2022-07-25T10:29:11.361Z,29.35
2022-07-25T10:31:49.428Z,29.15
2022-07-25T10:34:16.827Z,28.70
2022-07-25T10:36:51.737Z,28.96
2022-07-25T10:39:19.994Z,28.99
2022-07-25T10:41:58.525Z,28.94
2022-07-25T10:44:30.554Z,29.01
2022-07-25T10:47:09.056Z,29.05
2022-07-25T10:49:37.576Z,29.07
2022-07-25T10:52:05.142Z,29.26
2022-07-25T10:54:38.899Z,29.20
2022-07-25T10:57:07.183Z,29.19
2022-07-25T10:59:40.415Z,29.64
2022-07-25T11:02:09.731Z,29.68
2022-07-25T11:04:36.482Z,29.50
2022-07-25T11:07:35.788Z,29.62
2022-07-25T11:10:06.114Z,29.58
2022-07-25T11:12:33.388Z,29.92
2022-07-25T11:15:02.008Z,29.68
2022-07-25T11:17:29.740Z,29.97
2022-07-25T11:19:59.099Z,30.29
2022-07-25T11:22:27.725Z,30.04
2022-07-25T11:24:54.598Z,30.16
2022-07-25T11:27:28.040Z,30.39
2022-07-25T11:30:09.019Z,30.99
2022-07-25T11:32:49.867Z,31.36
2022-07-25T11:35:24.763Z,31.30
2022-07-25T11:37:52.304Z,31.41
2022-07-25T11:40:20.500Z,31.37
2022-07-25T11:42:48.527Z,31.47
2022-07-25T11:45:19.150Z,31.67
2022-07-25T11:47:47.275Z,31.83
2022-07-25T11:50:17.338Z,31.82
2022-07-25T11:52:45.610Z,32.01
2022-07-25T11:55:18.028Z,32.29
2022-07-25T11:57:47.333Z,32.22
2022-07-25T12:00:17.291Z,32.59
2022-07-25T12:02:44.704Z,32.89
2022-07-25T12:05:17.511Z,33.13
2022-07-25T12:07:54.669Z,33.23
2022-07-25T12:10:33.142Z,33.21
2022-07-25T12:13:04.396Z,33.53
2022-07-25T12:15:42.459Z,33.39
2022-07-25T12:18:10.684Z,33.51
2022-07-25T12:20:43.407Z,33.16
2022-07-25T12:23:12.548Z,32.84
2022-07-25T12:25:44.284Z,32.69
2022-07-25T12:28:11.915Z,32.36
2022-07-25T12:30:40.531Z,32.16
2022-07-25T12:33:07.746Z,32.05
2022-07-25T12:35:37.186Z,31.58
2022-07-25T12:38:04.644Z,31.16
2022-07-25T12:40:31.794Z,31.20
2022-07-25T12:42:59.016Z,31.66
2022-07-25T12:45:26.291Z,32.36
2022-07-25T12:47:53.047Z,33.08
2022-07-25T12:50:19.687Z,33.42
2022-07-25T12:52:47.148Z,32.41
2022-07-25T12:55:18.919Z,32.00
2022-07-25T12:57:46.241Z,31.70
2022-07-25T13:00:16.030Z,31.35
2022-07-25T13:02:42.995Z,31.51
2022-07-25T13:05:10.331Z,31.42
2022-07-25T13:07:37.297Z,31.62
2022-07-25T13:10:04.532Z,31.53
2022-07-25T13:12:31.214Z,31.16
2022-07-25T13:14:57.850Z,31.28
2022-07-25T13:17:27.469Z,30.98
2022-07-25T13:19:55.763Z,31.25
2022-07-25T13:22:22.630Z,31.16
2022-07-25T13:24:49.265Z,30.98
2022-07-25T13:27:18.455Z,30.95
2022-07-25T13:29:45.334Z,30.78
2022-07-25T13:32:12.090Z,31.14
2022-07-25T13:34:38.712Z,30.83
2022-07-25T13:37:06.022Z,30.91
2022-07-25T13:39:33.682Z,31.30
2022-07-25T13:42:00.215Z,31.27
2022-07-25T13:44:26.786Z,31.61
2022-07-25T13:46:53.469Z,31.81
2022-07-25T13:49:20.024Z,31.66
2022-07-25T13:51:47.627Z,31.58
2022-07-25T13:54:14.447Z,31.55
2022-07-25T13:56:42.434Z,31.04
2022-07-25T13:59:09.876Z,31.07
2022-07-25T14:01:36.977Z,30.67
2022-07-25T14:04:03.595Z,30.85
2022-07-25T14:06:30.211Z,30.98
2022-07-25T14:08:56.761Z,30.89
2022-07-25T14:11:28.578Z,31.04
2022-07-25T14:13:57.385Z,30.94
2022-07-25T14:16:23.880Z,30.64
2022-07-25T14:18:50.799Z,30.51
2022-07-25T14:21:17.354Z,30.32
2022-07-25T14:23:44.059Z,29.95
2022-07-25T14:26:10.649Z,29.91
2022-07-25T14:28:37.487Z,29.83
2022-07-25T14:31:04.132Z,29.61
2022-07-25T14:33:30.716Z,29.40
2022-07-25T14:35:57.218Z,29.35
2022-07-25T14:38:23.785Z,29.56
2022-07-25T14:40:51.547Z,29.27
2022-07-25T14:43:18.135Z,29.43
2022-07-25T14:45:44.794Z,29.44
2022-07-25T14:48:11.408Z,29.67
2022-07-25T14:50:37.892Z,29.88
2022-07-25T14:53:04.606Z,29.83
2022-07-25T14:55:31.333Z,29.67
2022-07-25T14:58:02.365Z,29.53
2022-07-25T15:00:29.746Z,29.59
2022-07-25T15:02:56.869Z,29.52
2022-07-25T15:05:23.422Z,29.08
2022-07-25T15:07:49.945Z,29.13
2022-07-25T15:10:16.653Z,29.04
2022-07-25T15:12:43.209Z,28.62
2022-07-25T15:15:11.365Z,28.47
2022-07-25T15:17:38.737Z,28.50
2022-07-25T15:20:05.886Z,28.59
2022-07-25T15:22:32.416Z,28.45
2022-07-25T15:25:34.788Z,28.43
2022-07-25T15:27:45.515Z,28.22
2022-07-25T15:30:12.809Z,28.23
2022-07-25T15:32:40.146Z,28.28
2022-07-25T15:35:07.031Z,28.03
2022-07-25T15:37:33.611Z,27.88
2022-07-25T15:40:00.429Z,27.86
2022-07-25T15:42:29.271Z,27.92
2022-07-25T15:45:22.112Z,27.95
2022-07-25T15:47:45.214Z,27.91
2022-07-25T15:50:15.552Z,27.74
2022-07-25T15:52:42.144Z,27.71
2022-07-25T15:55:09.175Z,27.81
2022-07-25T15:57:35.734Z,27.69
2022-07-25T16:00:03.371Z,27.76
2022-07-25T16:02:29.877Z,27.67
2022-07-25T16:04:57.450Z,27.42
2022-07-25T16:07:24.739Z,26.82
2022-07-25T16:09:51.929Z,27.01
2022-07-25T16:12:24.237Z,27.00
2022-07-25T16:14:54.594Z,26.76
2022-07-25T16:17:21.127Z,26.90
2022-07-25T16:19:47.660Z,26.95
2022-07-25T16:22:14.211Z,26.91
2022-07-25T16:24:41.114Z,27.32
2022-07-25T16:27:08.465Z,27.66
2022-07-25T16:29:34.992Z,28.11
2022-07-25T16:32:01.517Z,28.09
2022-07-25T16:34:29.297Z,27.81
2022-07-25T16:36:55.901Z,28.02
2022-07-25T16:39:23.115Z,28.00
2022-07-25T16:41:49.651Z,27.74
2022-07-25T16:44:16.513Z,27.75
2022-07-25T16:46:43.144Z,27.73
2022-07-25T16:49:10.279Z,27.62
2022-07-25T16:51:37.434Z,27.48
2022-07-25T16:54:04.176Z,27.52
2022-07-25T16:56:30.725Z,27.33
2022-07-25T16:58:57.219Z,27.32
2022-07-25T17:01:25.965Z,27.27
2022-07-25T17:03:53.038Z,27.27
2022-07-25T17:06:19.837Z,27.06
2022-07-25T17:08:46.757Z,26.99
2022-07-25T17:11:13.530Z,27.05
2022-07-25T17:13:40.237Z,27.01
2022-07-25T17:16:07.392Z,26.92
2022-07-25T17:18:33.911Z,26.68
2022-07-25T17:21:00.378Z,26.98
2022-07-25T17:23:27.410Z,26.96
2022-07-25T17:25:53.973Z,27.10
2022-07-25T17:28:21.459Z,27.09
2022-07-25T17:30:48.256Z,26.98
2022-07-25T17:33:14.921Z,26.94
2022-07-25T17:35:41.503Z,27.03
2022-07-25T17:38:08.005Z,27.19
2022-07-25T17:40:37.449Z,27.02
2022-07-25T17:43:03.991Z,27.01
2022-07-25T17:45:30.561Z,26.82
2022-07-25T17:47:57.109Z,26.68
2022-07-25T17:50:29.175Z,26.72
2022-07-25T17:52:59.433Z,26.69
2022-07-25T17:55:28.614Z,26.67
2022-07-25T17:57:55.716Z,26.67
2022-07-25T18:00:23.341Z,26.62
2022-07-25T18:02:50.497Z,26.54
2022-07-25T18:05:17.530Z,26.52
2022-07-25T18:07:45.758Z,26.46
2022-07-25T18:10:12.858Z,26.59
2022-07-25T18:12:39.416Z,26.48
2022-07-25T18:15:06.702Z,26.45
2022-07-25T18:17:33.287Z,26.42
2022-07-25T18:20:00.178Z,26.20
2022-07-25T18:22:26.744Z,26.24
2022-07-25T18:24:53.220Z,26.10
2022-07-25T18:27:19.742Z,26.11
2022-07-25T18:29:46.308Z,26.05
2022-07-25T18:32:12.827Z,25.87
2022-07-25T18:34:39.419Z,25.77
2022-07-25T18:37:05.962Z,25.84
2022-07-25T18:39:32.538Z,25.84
2022-07-25T18:41:59.067Z,25.77
2022-07-25T18:44:25.639Z,25.70
2022-07-25T18:46:52.210Z,25.81
2022-07-25T18:49:18.799Z,25.82
2022-07-25T18:51:45.409Z,25.65
2022-07-25T18:54:11.968Z,25.72
2022-07-25T18:56:38.483Z,25.65
2022-07-25T18:59:05.369Z,25.52
2022-07-25T19:01:32.138Z,25.33
2022-07-25T19:03:58.747Z,25.38
2022-07-25T19:06:25.517Z,25.28
2022-07-25T19:08:52.721Z,25.21
2022-07-25T19:11:19.320Z,25.15
2022-07-25T19:13:50.614Z,25.13
2022-07-25T19:16:17.772Z,25.10
2022-07-25T19:18:44.603Z,24.99
2022-07-25T19:21:11.306Z,24.84
2022-07-25T19:23:37.992Z,24.85
2022-07-25T19:26:04.586Z,24.74
2022-07-25T19:28:31.127Z,24.66
2022-07-25T19:30:57.781Z,24.57
2022-07-25T19:33:24.663Z,24.55
2022-07-25T19:35:51.397Z,24.40
2022-07-25T19:38:19.266Z,24.47
2022-07-25T19:40:45.947Z,24.28
2022-07-25T19:43:12.625Z,24.27
2022-07-25T19:45:39.333Z,24.24
2022-07-25T19:48:06.542Z,24.23
2022-07-25T19:50:33.434Z,24.04
2022-07-25T19:53:00.941Z,24.04
2022-07-25T19:55:28.007Z,24.00
2022-07-25T19:57:54.524Z,24.02
2022-07-25T20:00:24.038Z,23.91
2022-07-25T20:02:50.614Z,24.01
2022-07-25T20:05:17.694Z,23.93
2022-07-25T20:07:44.206Z,23.95
2022-07-25T20:10:10.970Z,23.95
2022-07-25T20:12:38.396Z,23.97
2022-07-25T20:15:05.546Z,23.91
2022-07-25T20:17:32.046Z,23.97
2022-07-25T20:19:58.721Z,24.02
2022-07-25T20:22:25.880Z,24.01
2022-07-25T20:24:52.398Z,24.01
2022-07-25T20:27:18.994Z,24.01
2022-07-25T20:29:45.561Z,24.02
2022-07-25T20:32:12.182Z,24.05
2022-07-25T20:34:38.759Z,24.05
2022-07-25T20:37:05.231Z,24.04
2022-07-25T20:39:31.840Z,23.95
2022-07-25T20:41:58.483Z,23.98
2022-07-25T20:44:25.007Z,23.84
2022-07-25T20:46:51.636Z,23.92
2022-07-25T20:49:18.239Z,23.91
2022-07-25T20:51:44.849Z,23.84
2022-07-25T20:54:11.507Z,23.89
2022-07-25T20:56:38.091Z,23.90
2022-07-25T20:59:04.816Z,23.74
2022-07-25T21:01:31.548Z,23.78
2022-07-25T21:03:58.120Z,23.74
2022-07-25T21:06:27.164Z,23.77
2022-07-25T21:08:54.177Z,23.69
2022-07-25T21:11:21.405Z,23.60
2022-07-25T21:13:47.906Z,23.76
2022-07-25T21:16:14.797Z,23.64
2022-07-25T21:18:41.567Z,23.63
2022-07-25T21:21:12.135Z,23.35
2022-07-25T21:23:39.197Z,23.50
2022-07-25T21:26:05.902Z,23.35
2022-07-25T21:28:33.713Z,23.39
2022-07-25T21:31:00.306Z,23.23
2022-07-25T21:33:26.843Z,23.09
2022-07-25T21:35:53.955Z,23.12
2022-07-25T21:38:26.778Z,23.11
2022-07-25T21:40:56.738Z,23.04
2022-07-25T21:43:24.177Z,22.85
2022-07-25T21:45:51.336Z,22.78
2022-07-25T21:48:20.872Z,22.66
2022-07-25T21:50:48.781Z,22.59
2022-07-25T21:53:17.103Z,22.63
2022-07-25T21:55:43.608Z,22.55
2022-07-25T21:58:10.150Z,22.59
2022-07-25T22:00:45.589Z,22.61
2022-07-25T22:03:12.384Z,22.52
2022-07-25T22:05:39.391Z,22.51
2022-07-25T22:08:05.988Z,22.37
2022-07-25T22:10:33.561Z,22.29
2022-07-25T22:13:00.257Z,22.31
2022-07-25T22:15:27.266Z,22.31
2022-07-25T22:17:53.946Z,22.35
2022-07-25T22:20:20.796Z,22.21
2022-07-25T22:22:48.508Z,22.15
2022-07-25T22:25:16.313Z,22.15
2022-07-25T22:27:43.847Z,22.05
2022-07-25T22:30:14.882Z,22.00
2022-07-25T22:32:45.718Z,22.02
2022-07-25T22:35:12.581Z,22.06
2022-07-25T22:37:39.156Z,21.99
2022-07-25T22:40:06.300Z,21.86
2022-07-25T22:42:32.810Z,21.77
2022-07-25T22:44:59.440Z,21.90
2022-07-25T22:47:26.062Z,21.96
2022-07-25T22:49:52.578Z,21.93
2022-07-25T22:52:19.319Z,21.86
2022-07-25T22:54:45.804Z,21.84
2022-07-25T22:57:12.288Z,21.73
2022-07-25T22:59:38.925Z,21.77
2022-07-25T23:02:05.510Z,21.74
2022-07-25T23:04:32.144Z,21.77
2022-07-25T23:06:58.676Z,21.78
2022-07-25T23:09:25.303Z,21.83
2022-07-25T23:12:01.564Z,21.79
2022-07-25T23:14:28.090Z,21.82
2022-07-25T23:17:12.948Z,21.81
2022-07-25T23:19:39.424Z,21.79
2022-07-25T23:22:06.010Z,21.74
2022-07-25T23:24:37.376Z,21.63
2022-07-25T23:27:04.942Z,21.50
2022-07-25T23:29:31.480Z,21.61
2022-07-25T23:31:57.980Z,21.58
2022-07-25T23:34:24.578Z,21.62
2022-07-25T23:36:51.159Z,21.68
2022-07-25T23:39:17.646Z,21.68
2022-07-25T23:41:44.246Z,21.52
2022-07-25T23:44:11.148Z,21.54
2022-07-25T23:46:38.957Z,21.55
2022-07-25T23:49:06.260Z,21.59
2022-07-25T23:51:33.310Z,21.58
2022-07-25T23:54:00.008Z,21.60
2022-07-25T23:56:26.536Z,21.58
2022-07-25T23:58:53.219Z,21.57
